createdAt,value
2022-12-16T00:05:13.173Z,101040.16
2022-12-16T00:07:58.147Z,101069.06
2022-12-16T00:10:55.277Z,101057.06
2022-12-16T00:13:40.550Z,101059.75
2022-12-16T00:16:25.643Z,101033.31
2022-12-16T00:19:10.846Z,101042.03
2022-12-16T00:21:56.187Z,101058.13
2022-12-16T00:24:42.339Z,101057.34
2022-12-16T00:27:27.640Z,101051.56
2022-12-16T00:30:13.301Z,101071.31
2022-12-16T00:32:58.256Z,101068.66
2022-12-16T00:35:46.010Z,101054.19
2022-12-16T00:38:31.103Z,101056.84
2022-12-16T00:41:16.248Z,101075.63
2022-12-16T00:44:01.384Z,101055.16
2022-12-16T00:46:46.543Z,101076.41
2022-12-16T00:49:31.533Z,101078.19
2022-12-16T00:52:16.754Z,101077.34
2022-12-16T00:55:02.709Z,101082.63
2022-12-16T00:57:47.863Z,101087.75
2022-12-16T01:00:32.879Z,101084.38
2022-12-16T01:03:21.534Z,101085.22
2022-12-16T01:06:09.166Z,101082.78
2022-12-16T01:08:54.178Z,101086.19
2022-12-16T01:11:40.241Z,101095.53
2022-12-16T01:14:25.304Z,101092.03
2022-12-16T01:17:10.426Z,101095.41
2022-12-16T01:19:55.822Z,101086.97
2022-12-16T01:22:41.980Z,101087.69
2022-12-16T01:25:27.166Z,101096.22
2022-12-16T01:28:12.262Z,101075.84
2022-12-16T01:31:01.637Z,101096.25
2022-12-16T01:33:47.320Z,101097.13
2022-12-16T01:36:32.363Z,101097.09
2022-12-16T01:39:17.500Z,101111.63
2022-12-16T01:42:02.505Z,101105.56
2022-12-16T01:44:52.065Z,101108.13
2022-12-16T01:47:37.960Z,101115.00
2022-12-16T01:50:23.793Z,101108.13
2022-12-16T01:53:09.177Z,101120.09
2022-12-16T01:55:56.884Z,101119.25
2022-12-16T01:58:43.946Z,101117.56
2022-12-16T02:01:29.793Z,101120.97
2022-12-16T02:04:15.158Z,101131.25
2022-12-16T02:07:01.437Z,101133.88
2022-12-16T02:09:46.622Z,101134.75
2022-12-16T02:15:52.121Z,101143.25
2022-12-16T02:18:43.610Z,101140.66
2022-12-16T02:21:47.647Z,101105.78
2022-12-16T02:24:50.968Z,101138.16
2022-12-16T02:31:09.990Z,101149.31
2022-12-16T02:34:13.184Z,101145.09
2022-12-16T02:37:17.927Z,101126.41
2022-12-16T02:40:11.481Z,101153.69
2022-12-16T02:43:11.352Z,101157.16
2022-12-16T02:45:56.686Z,101162.28
2022-12-16T02:48:41.754Z,101152.03
2022-12-16T02:51:27.303Z,101160.63
2022-12-16T02:54:13.050Z,101164.78
2022-12-16T02:57:07.121Z,101165.59
2022-12-16T03:00:13.024Z,101163.00
2022-12-16T03:03:10.359Z,101127.28
2022-12-16T03:05:57.842Z,101174.06
2022-12-16T03:08:47.755Z,101173.22
2022-12-16T03:11:33.636Z,101181.75
2022-12-16T03:14:22.985Z,101180.06
2022-12-16T03:20:23.530Z,101192.06
2022-12-16T03:23:13.472Z,101192.84
2022-12-16T03:26:04.839Z,101191.13
2022-12-16T03:28:56.167Z,101186.81
2022-12-16T03:31:51.247Z,101196.13
2022-12-16T03:38:14.278Z,101210.78
2022-12-16T03:41:01.072Z,101190.31
2022-12-16T03:43:46.644Z,101201.31
2022-12-16T03:46:32.197Z,101201.44
2022-12-16T03:49:17.381Z,101169.91
2022-12-16T03:55:06.280Z,101198.94
2022-12-16T03:57:51.752Z,101202.38
2022-12-16T04:00:37.056Z,101208.41
2022-12-16T04:03:26.607Z,101180.25
2022-12-16T04:06:11.923Z,101187.97
2022-12-16T04:12:18.613Z,101211.06
2022-12-16T04:15:24.106Z,101209.38
2022-12-16T04:18:34.081Z,101200.00
2022-12-16T04:21:38.129Z,101205.25
2022-12-16T04:27:30.439Z,101238.63
2022-12-16T04:30:20.882Z,101236.97
2022-12-16T04:33:35.094Z,101239.53
2022-12-16T04:36:39.274Z,101222.59
2022-12-16T04:39:43.028Z,101240.47
2022-12-16T04:46:09.493Z,101235.44
2022-12-16T04:49:13.163Z,101249.16
2022-12-16T04:52:16.938Z,101255.19
2022-12-16T04:55:20.768Z,101257.81
2022-12-16T05:01:46.798Z,101262.09
2022-12-16T05:04:50.571Z,101239.94
2022-12-16T05:07:54.341Z,101256.19
2022-12-16T05:10:58.289Z,101261.31
2022-12-16T05:14:02.218Z,101236.63
2022-12-16T05:17:05.990Z,101253.72
2022-12-16T05:20:09.810Z,101255.44
2022-12-16T05:23:17.043Z,101246.03
2022-12-16T05:26:20.789Z,101262.31
2022-12-16T05:29:24.669Z,101268.28
2022-12-16T05:32:44.038Z,101260.66
2022-12-16T05:36:07.597Z,101266.69
2022-12-16T05:39:11.886Z,101263.28
2022-12-16T05:42:15.709Z,101274.38
2022-12-16T05:45:19.384Z,101277.81
2022-12-16T05:48:23.391Z,101274.41
2022-12-16T05:51:27.089Z,101277.03
2022-12-16T05:54:30.900Z,101260.00
2022-12-16T05:57:34.797Z,101280.47
2022-12-16T06:00:38.787Z,101294.16
2022-12-16T06:03:42.674Z,101287.31
2022-12-16T06:06:46.363Z,101286.50
2022-12-16T06:09:58.660Z,101295.84
2022-12-16T06:13:06.087Z,101300.97
2022-12-16T06:16:09.909Z,101303.53
2022-12-16T06:19:13.707Z,101311.22
2022-12-16T06:22:17.826Z,101271.13
2022-12-16T06:25:22.715Z,101296.75
2022-12-16T06:28:26.383Z,101301.81
2022-12-16T06:31:30.169Z,101296.72
2022-12-16T06:34:33.890Z,101312.88
2022-12-16T06:37:37.785Z,101303.53
2022-12-16T06:40:41.639Z,101301.81
2022-12-16T06:43:45.511Z,101317.13
2022-12-16T06:46:49.466Z,101310.31
2022-12-16T06:49:53.393Z,101319.69
2022-12-16T06:52:57.433Z,101309.41
2022-12-16T06:56:01.282Z,101320.47
2022-12-16T06:59:05.275Z,101329.84
2022-12-16T07:02:09.187Z,101328.97
2022-12-16T07:05:13.047Z,101317.81
2022-12-16T07:08:16.892Z,101316.94
2022-12-16T07:11:20.683Z,101339.09
2022-12-16T07:14:24.506Z,101331.44
2022-12-16T07:17:28.720Z,101335.66
2022-12-16T07:20:32.192Z,101339.06
2022-12-16T07:23:36.017Z,101343.38
2022-12-16T07:26:39.671Z,101340.84
2022-12-16T07:29:43.351Z,101337.50
2022-12-16T07:32:47.261Z,101346.88
2022-12-16T07:35:50.948Z,101346.75
2022-12-16T07:38:54.763Z,101327.94
2022-12-16T07:41:58.662Z,101360.28
2022-12-16T07:45:02.480Z,101363.66
2022-12-16T07:48:10.100Z,101360.13
2022-12-16T07:51:13.955Z,101374.56
2022-12-16T07:54:17.888Z,101393.34
2022-12-16T07:57:21.814Z,101389.94
2022-12-16T08:00:26.406Z,101392.53
2022-12-16T08:03:38.074Z,101400.22
2022-12-16T08:06:42.538Z,101396.03
2022-12-16T08:09:46.493Z,101398.53
2022-12-16T08:12:50.362Z,101388.28
2022-12-16T08:15:54.332Z,101406.34
2022-12-16T08:18:58.273Z,101399.41
2022-12-16T08:22:02.237Z,101424.34
2022-12-16T08:25:06.043Z,101433.69
2022-12-16T08:28:14.479Z,101442.25
2022-12-16T08:31:18.495Z,101436.22
2022-12-16T08:34:22.391Z,101445.59
2022-12-16T08:37:26.099Z,101449.84
2022-12-16T08:40:37.326Z,101429.31
2022-12-16T08:43:41.074Z,101455.81
2022-12-16T08:46:45.214Z,101449.91
2022-12-16T08:49:48.983Z,101449.91
2022-12-16T08:52:52.882Z,101461.06
2022-12-16T08:55:56.580Z,101461.97
2022-12-16T08:59:00.307Z,101456.06
2022-12-16T09:02:04.160Z,101449.22
2022-12-16T09:05:08.188Z,101464.66
2022-12-16T09:08:18.384Z,101474.13
2022-12-16T09:11:22.191Z,101469.13
2022-12-16T09:14:26.132Z,101476.78
2022-12-16T09:17:30.035Z,101482.78
2022-12-16T09:20:34.439Z,101481.09
2022-12-16T09:23:38.684Z,101484.47
2022-12-16T09:26:45.833Z,101490.50
2022-12-16T09:29:54.165Z,101497.34
2022-12-16T09:33:03.562Z,101502.50
2022-12-16T09:36:07.820Z,101510.19
2022-12-16T09:39:11.570Z,101509.34
2022-12-16T09:42:52.464Z,101512.78
2022-12-16T09:45:59.116Z,101500.78
2022-12-16T09:49:15.412Z,101506.78
2022-12-16T09:52:21.838Z,101524.75
2022-12-16T09:55:44.411Z,101525.56
2022-12-16T09:58:59.659Z,101525.59
2022-12-16T10:02:03.733Z,101514.47
2022-12-16T10:05:11.034Z,101487.94
2022-12-16T10:08:36.668Z,101503.28
2022-12-16T10:11:52.269Z,101519.47
2022-12-16T10:15:17.199Z,101510.88
2022-12-16T10:18:29.968Z,101526.28
2022-12-16T10:21:40.370Z,101480.91
2022-12-16T10:25:09.653Z,101525.19
2022-12-16T10:28:22.889Z,101505.16
2022-12-16T10:31:35.936Z,101521.44
2022-12-16T10:34:48.744Z,101522.22
2022-12-16T10:37:56.640Z,101498.31
2022-12-16T10:41:00.507Z,101519.63
2022-12-16T10:44:06.574Z,101528.13
2022-12-16T10:47:10.229Z,101529.81
2022-12-16T10:50:14.515Z,101537.44
2022-12-16T10:53:30.525Z,101528.72
2022-12-16T10:56:53.403Z,101532.88
2022-12-16T10:59:59.474Z,101517.41
2022-12-16T11:03:03.591Z,101524.69
2022-12-16T11:06:07.740Z,101512.81
2022-12-16T11:09:11.518Z,101517.09
2022-12-16T11:12:32.978Z,101513.53
2022-12-16T11:15:44.669Z,101514.34
2022-12-16T11:18:48.603Z,101506.53
2022-12-16T11:22:03.027Z,101522.59
2022-12-16T11:25:25.169Z,101529.38
2022-12-16T11:28:35.754Z,101527.50
2022-12-16T11:31:39.921Z,101529.97
2022-12-16T11:34:43.767Z,101519.50
2022-12-16T11:37:50.224Z,101525.34
2022-12-16T11:40:53.788Z,101514.03
2022-12-16T11:44:02.831Z,101528.44
2022-12-16T11:47:06.772Z,101528.25
2022-12-16T11:50:10.625Z,101507.53
2022-12-16T11:53:15.464Z,101526.19
2022-12-16T11:56:20.717Z,101489.28
2022-12-16T11:59:59.852Z,101514.78
2022-12-16T12:03:11.095Z,101506.00
2022-12-16T12:06:17.832Z,101503.53
2022-12-16T12:09:31.008Z,101517.00
2022-12-16T12:12:51.146Z,101498.88
2022-12-16T12:16:04.490Z,101517.44
2022-12-16T12:19:17.006Z,101522.47
2022-12-16T12:22:32.030Z,101514.53
2022-12-16T12:25:43.973Z,101511.03
2022-12-16T12:29:41.257Z,101509.25
2022-12-16T12:32:59.592Z,101510.03
2022-12-16T12:36:12.649Z,101520.22
2022-12-16T12:39:22.673Z,101521.84
2022-12-16T12:42:26.594Z,101514.06
2022-12-16T12:45:53.609Z,101511.31
2022-12-16T12:49:43.523Z,101505.25
2022-12-16T12:52:50.360Z,101510.25
2022-12-16T12:56:00.730Z,101503.25
2022-12-16T12:59:07.955Z,101519.44
2022-12-16T13:02:14.455Z,101520.06
2022-12-16T13:05:24.139Z,101530.47
2022-12-16T13:08:50.471Z,101531.97
2022-12-16T13:11:55.830Z,101525.97
2022-12-16T13:15:06.600Z,101531.81
2022-12-16T13:18:20.004Z,101495.16
2022-12-16T13:21:56.603Z,101523.13
2022-12-16T13:25:07.503Z,101522.22
2022-12-16T13:28:15.345Z,101525.59
2022-12-16T13:31:25.522Z,101530.78
2022-12-16T13:34:32.800Z,101501.00
2022-12-16T13:37:45.818Z,101526.44
2022-12-16T13:41:12.472Z,101528.19
2022-12-16T13:44:18.005Z,101533.13
2022-12-16T13:47:21.838Z,101516.94
2022-12-16T13:50:59.092Z,101533.97
2022-12-16T13:54:07.672Z,101516.03
2022-12-16T13:57:11.572Z,101533.13
2022-12-16T14:00:18.488Z,101536.66
2022-12-16T14:03:29.409Z,101532.38
2022-12-16T14:06:40.932Z,101532.31
2022-12-16T14:09:54.564Z,101530.56
2022-12-16T14:13:02.457Z,101544.34
2022-12-16T14:16:06.417Z,101528.31
2022-12-16T14:19:32.269Z,101543.66
2022-12-16T14:22:59.232Z,101553.25
2022-12-16T14:26:04.217Z,101527.94
2022-12-16T14:29:08.213Z,101555.25
2022-12-16T14:32:12.118Z,101539.13
2022-12-16T14:35:20.907Z,101540.13
2022-12-16T14:38:47.793Z,101561.59
2022-12-16T14:41:51.878Z,101566.91
2022-12-16T14:44:56.095Z,101568.50
2022-12-16T14:47:59.982Z,101563.56
2022-12-16T14:51:03.951Z,101578.94
2022-12-16T14:54:07.785Z,101578.09
2022-12-16T14:57:16.263Z,101557.81
2022-12-16T15:00:26.166Z,101576.59
2022-12-16T15:03:51.414Z,101586.22
2022-12-16T15:07:01.423Z,101588.84
2022-12-16T15:10:07.886Z,101556.56
2022-12-16T15:13:11.834Z,101582.22
2022-12-16T15:16:15.864Z,101602.97
2022-12-16T15:19:20.964Z,101601.31
2022-12-16T15:22:24.941Z,101604.00
2022-12-16T15:25:42.227Z,101601.69
2022-12-16T15:29:06.176Z,101609.56
2022-12-16T15:32:10.059Z,101612.81
2022-12-16T15:35:14.001Z,101616.44
2022-12-16T15:38:17.999Z,101630.25
2022-12-16T15:41:23.776Z,101634.59
2022-12-16T15:44:43.315Z,101637.22
2022-12-16T15:47:52.369Z,101640.72
2022-12-16T15:50:56.198Z,101649.38
2022-12-16T15:53:59.800Z,101623.19
2022-12-16T15:57:04.662Z,101639.69
2022-12-16T16:00:16.258Z,101641.59
2022-12-16T16:03:20.186Z,101621.91
2022-12-16T16:06:34.003Z,101649.06
2022-12-16T16:09:46.996Z,101626.91
2022-12-16T16:12:50.885Z,101637.34
2022-12-16T16:15:54.684Z,101662.09
2022-12-16T16:18:59.939Z,101658.88
2022-12-16T16:22:05.816Z,101667.56
2022-12-16T16:25:09.460Z,101646.97
2022-12-16T16:28:13.387Z,101672.00
2022-12-16T16:31:17.205Z,101655.25
2022-12-16T16:34:21.718Z,101677.53
2022-12-16T16:37:34.944Z,101680.25
2022-12-16T16:41:00.075Z,101654.47
2022-12-16T16:44:04.029Z,101676.75
2022-12-16T16:47:07.780Z,101671.13
2022-12-16T16:50:14.784Z,101649.03
2022-12-16T16:53:22.859Z,101675.13
2022-12-16T16:56:29.147Z,101675.88
2022-12-16T16:59:33.203Z,101670.72
2022-12-16T17:02:41.356Z,101674.16
2022-12-16T17:05:45.518Z,101679.44
2022-12-16T17:08:49.346Z,101682.03
2022-12-16T17:11:53.819Z,101668.38
2022-12-16T17:14:57.686Z,101694.88
2022-12-16T17:18:01.551Z,101686.31
2022-12-16T17:21:05.325Z,101671.81
2022-12-16T17:24:09.450Z,101695.75
2022-12-16T17:27:13.020Z,101710.53
2022-12-16T17:30:17.023Z,101720.50
2022-12-16T17:33:20.799Z,101704.41
2022-12-16T17:36:29.990Z,101675.44
2022-12-16T17:39:35.215Z,101704.47
2022-12-16T17:42:44.707Z,101716.44
2022-12-16T17:45:49.912Z,101718.31
2022-12-16T17:48:53.856Z,101719.91
2022-12-16T17:51:58.107Z,101715.63
2022-12-16T17:55:01.859Z,101729.38
2022-12-16T17:58:05.847Z,101727.72
2022-12-16T18:01:09.805Z,101727.09
2022-12-16T18:04:13.812Z,101729.84
2022-12-16T18:07:17.554Z,101705.13
2022-12-16T18:10:21.479Z,101731.97
2022-12-16T18:13:25.626Z,101728.66
2022-12-16T18:16:29.513Z,101733.00
2022-12-16T18:19:34.242Z,101733.00
2022-12-16T18:22:38.186Z,101720.19
2022-12-16T18:25:41.964Z,101728.69
2022-12-16T18:28:45.773Z,101737.16
2022-12-16T18:31:49.724Z,101731.56
2022-12-16T18:34:53.275Z,101738.88
2022-12-16T18:37:57.204Z,101742.53
2022-12-16T18:41:01.046Z,101737.44
2022-12-16T18:44:04.857Z,101739.19
2022-12-16T18:47:08.870Z,101741.81
2022-12-16T18:50:12.558Z,101740.97
2022-12-16T18:53:16.424Z,101713.59
2022-12-16T18:56:22.342Z,101746.16
2022-12-16T18:59:26.128Z,101751.28
2022-12-16T19:02:30.820Z,101738.41
2022-12-16T19:05:34.518Z,101729.91
2022-12-16T19:08:38.323Z,101754.75
2022-12-16T19:11:42.244Z,101753.09
2022-12-16T19:14:46.290Z,101756.50
2022-12-16T19:17:50.207Z,101749.66
2022-12-16T19:20:54.088Z,101758.22
2022-12-16T19:24:00.978Z,101769.34
2022-12-16T19:27:05.407Z,101753.09
2022-12-16T19:30:10.420Z,101763.34
2022-12-16T19:33:14.025Z,101756.50
2022-12-16T19:36:18.131Z,101730.81
2022-12-16T19:39:21.987Z,101765.94
2022-12-16T19:42:26.067Z,101774.50
2022-12-16T19:45:30.437Z,101764.22
2022-12-16T19:48:47.973Z,101777.88
2022-12-16T19:51:51.773Z,101777.03
2022-12-16T19:54:56.211Z,101787.31
2022-12-16T19:57:59.928Z,101784.72
2022-12-16T20:01:03.812Z,101760.72
2022-12-16T20:04:11.973Z,101788.97
2022-12-16T20:07:17.809Z,101786.38
2022-12-16T20:10:30.267Z,101798.34
2022-12-16T20:13:33.808Z,101789.81
2022-12-16T20:16:37.661Z,101796.63
2022-12-16T20:19:41.720Z,101796.59
2022-12-16T20:22:45.610Z,101781.16
2022-12-16T20:25:49.516Z,101804.28
2022-12-16T20:28:53.200Z,101810.22
2022-12-16T20:32:00.237Z,101803.38
2022-12-16T20:35:04.143Z,101821.31
2022-12-16T20:38:08.005Z,101820.47
2022-12-16T20:41:20.540Z,101822.22
2022-12-16T20:44:24.381Z,101825.59
2022-12-16T20:47:28.133Z,101827.28
2022-12-16T20:50:32.225Z,101830.69
2022-12-16T20:53:36.392Z,101828.13
2022-12-16T20:56:40.566Z,101821.19
2022-12-16T20:59:44.333Z,101846.84
2022-12-16T21:02:48.249Z,101839.06
2022-12-16T21:05:52.563Z,101847.63
2022-12-16T21:09:01.591Z,101845.94
2022-12-16T21:12:04.877Z,101845.03
2022-12-16T21:15:08.824Z,101865.47
2022-12-16T21:18:13.496Z,101839.84
2022-12-16T21:21:17.531Z,101863.81
2022-12-16T21:24:31.985Z,101847.47
2022-12-16T21:27:35.442Z,101848.22
2022-12-16T21:30:39.511Z,101862.72
2022-12-16T21:33:54.001Z,101872.13
2022-12-16T21:36:59.082Z,101873.78
2022-12-16T21:40:02.873Z,101871.97
2022-12-16T21:43:06.968Z,101867.63
2022-12-16T21:46:12.395Z,101881.25
2022-12-16T21:49:16.317Z,101859.72
2022-12-16T21:52:20.074Z,101870.03
2022-12-16T21:55:24.441Z,101865.78
2022-12-16T21:58:29.897Z,101866.72
2022-12-16T22:01:33.863Z,101865.00
2022-12-16T22:04:37.654Z,101869.16
2022-12-16T22:07:41.517Z,101864.75
2022-12-16T22:10:45.656Z,101863.94
2022-12-16T22:13:49.685Z,101867.41
2022-12-16T22:16:53.650Z,101870.00
2022-12-16T22:19:57.412Z,101859.81
2022-12-16T22:23:01.077Z,101873.44
2022-12-16T22:26:21.703Z,101875.97
2022-12-16T22:29:25.438Z,101858.75
2022-12-16T22:32:29.493Z,101865.66
2022-12-16T22:35:33.324Z,101875.00
2022-12-16T22:38:37.208Z,101870.66
2022-12-16T22:41:41.120Z,101880.00
2022-12-16T22:44:44.966Z,101856.75
2022-12-16T22:47:49.835Z,101879.03
2022-12-16T22:50:53.582Z,101882.44
2022-12-16T22:53:59.838Z,101886.59
2022-12-16T22:57:03.730Z,101882.34
2022-12-16T23:00:07.646Z,101887.53
2022-12-16T23:03:11.494Z,101847.16
2022-12-16T23:06:15.319Z,101888.31
2022-12-16T23:09:19.129Z,101878.97
2022-12-16T23:12:23.436Z,101885.75
2022-12-16T23:15:30.332Z,101880.72
2022-12-16T23:18:34.257Z,101886.66
2022-12-16T23:21:38.428Z,101888.31
2022-12-16T23:24:42.266Z,101897.66
2022-12-16T23:27:46.225Z,101866.75
2022-12-16T23:30:50.131Z,101879.59
2022-12-16T23:33:53.801Z,101852.00
2022-12-16T23:37:00.575Z,101888.13
2022-12-16T23:40:04.471Z,101883.00
2022-12-16T23:43:08.152Z,101888.91
2022-12-16T23:46:12.110Z,101882.94
2022-12-16T23:49:15.932Z,101883.72
2022-12-16T23:52:19.852Z,101889.66
2022-12-16T23:55:24.282Z,101889.59
2022-12-16T23:58:28.637Z,101885.31
